sensor_id;sensor_type;location;lat;lon;timestamp;P1;durP1;ratioP1;P2;durP2;ratioP2
75408;SDS011;63979;55.644;37.734;2023-07-29T00:03:38;3.10;;;2.67;;
75408;SDS011;63979;55.644;37.734;2023-07-29T00:08:39;3.60;;;2.60;;
75408;SDS011;63979;55.644;37.734;2023-07-29T00:13:39;3.35;;;2.40;;
75408;SDS011;63979;55.644;37.734;2023-07-29T00:18:40;3.78;;;2.80;;
75408;SDS011;63979;55.644;37.734;2023-07-29T00:23:41;2.88;;;2.45;;
75408;SDS011;63979;55.644;37.734;2023-07-29T00:28:43;4.78;;;2.70;;
75408;SDS011;63979;55.644;37.734;2023-07-29T00:33:44;5.50;;;2.58;;
75408;SDS011;63979;55.644;37.734;2023-07-29T00:38:45;6.93;;;2.55;;
75408;SDS011;63979;55.644;37.734;2023-07-29T00:43:46;6.30;;;2.45;;
75408;SDS011;63979;55.644;37.734;2023-07-29T00:48:47;3.00;;;2.70;;
75408;SDS011;63979;55.644;37.734;2023-07-29T00:53:48;3.15;;;2.40;;
75408;SDS011;63979;55.644;37.734;2023-07-29T00:58:49;2.95;;;2.60;;
75408;SDS011;63979;55.644;37.734;2023-07-29T01:03:52;4.82;;;2.75;;
75408;SDS011;63979;55.644;37.734;2023-07-29T01:08:59;2.63;;;2.28;;
75408;SDS011;63979;55.644;37.734;2023-07-29T01:14:05;3.83;;;2.60;;
75408;SDS011;63979;55.644;37.734;2023-07-29T01:24:48;3.08;;;2.50;;
75408;SDS011;63979;55.644;37.734;2023-07-29T01:29:49;2.47;;;2.22;;
75408;SDS011;63979;55.644;37.734;2023-07-29T01:34:53;4.28;;;2.47;;
75408;SDS011;63979;55.644;37.734;2023-07-29T01:40:14;2.47;;;2.28;;
75408;SDS011;63979;55.644;37.734;2023-07-29T01:45:17;2.38;;;2.08;;
75408;SDS011;63979;55.644;37.734;2023-07-29T01:50:18;4.47;;;2.40;;
75408;SDS011;63979;55.644;37.734;2023-07-29T01:55:19;3.40;;;3.05;;
75408;SDS011;63979;55.644;37.734;2023-07-29T02:00:21;3.45;;;3.00;;
75408;SDS011;63979;55.644;37.734;2023-07-29T02:05:22;3.35;;;2.22;;
75408;SDS011;63979;55.644;37.734;2023-07-29T02:10:23;3.33;;;3.00;;
75408;SDS011;63979;55.644;37.734;2023-07-29T02:15:24;4.65;;;3.03;;
75408;SDS011;63979;55.644;37.734;2023-07-29T02:20:25;3.67;;;3.05;;
75408;SDS011;63979;55.644;37.734;2023-07-29T02:25:26;3.45;;;2.85;;
75408;SDS011;63979;55.644;37.734;2023-07-29T02:30:27;3.50;;;3.03;;
75408;SDS011;63979;55.644;37.734;2023-07-29T02:35:28;5.18;;;3.67;;
75408;SDS011;63979;55.644;37.734;2023-07-29T02:40:29;5.57;;;3.50;;
75408;SDS011;63979;55.644;37.734;2023-07-29T02:45:30;3.63;;;3.30;;
75408;SDS011;63979;55.644;37.734;2023-07-29T02:50:31;4.53;;;3.60;;
75408;SDS011;63979;55.644;37.734;2023-07-29T02:55:34;3.70;;;3.10;;
75408;SDS011;63979;55.644;37.734;2023-07-29T03:00:35;4.25;;;2.30;;
75408;SDS011;63979;55.644;37.734;2023-07-29T03:05:36;3.47;;;2.80;;
75408;SDS011;63979;55.644;37.734;2023-07-29T03:15:39;4.97;;;3.30;;
75408;SDS011;63979;55.644;37.734;2023-07-29T03:20:40;4.68;;;3.55;;
75408;SDS011;63979;55.644;37.734;2023-07-29T03:25:41;4.03;;;2.88;;
75408;SDS011;63979;55.644;37.734;2023-07-29T03:30:42;3.53;;;3.10;;
75408;SDS011;63979;55.644;37.734;2023-07-29T03:35:44;6.07;;;3.15;;
75408;SDS011;63979;55.644;37.734;2023-07-29T03:40:45;4.03;;;3.13;;
75408;SDS011;63979;55.644;37.734;2023-07-29T03:45:46;5.57;;;2.97;;
75408;SDS011;63979;55.644;37.734;2023-07-29T03:50:47;5.70;;;3.13;;
75408;SDS011;63979;55.644;37.734;2023-07-29T03:55:48;3.42;;;2.85;;
75408;SDS011;63979;55.644;37.734;2023-07-29T04:00:50;5.20;;;2.67;;
75408;SDS011;63979;55.644;37.734;2023-07-29T04:05:51;4.95;;;2.90;;
75408;SDS011;63979;55.644;37.734;2023-07-29T04:10:53;4.07;;;3.03;;
75408;SDS011;63979;55.644;37.734;2023-07-29T04:15:54;5.00;;;3.42;;
75408;SDS011;63979;55.644;37.734;2023-07-29T04:20:55;4.03;;;3.38;;
75408;SDS011;63979;55.644;37.734;2023-07-29T04:25:56;3.85;;;3.40;;
75408;SDS011;63979;55.644;37.734;2023-07-29T04:30:57;7.88;;;3.92;;
75408;SDS011;63979;55.644;37.734;2023-07-29T04:35:58;4.18;;;3.60;;
75408;SDS011;63979;55.644;37.734;2023-07-29T04:40:59;4.57;;;3.10;;
75408;SDS011;63979;55.644;37.734;2023-07-29T04:46:07;6.50;;;3.92;;
75408;SDS011;63979;55.644;37.734;2023-07-29T04:51:11;4.63;;;4.20;;
75408;SDS011;63979;55.644;37.734;2023-07-29T04:56:12;3.17;;;2.65;;
75408;SDS011;63979;55.644;37.734;2023-07-29T05:01:13;3.33;;;1.98;;
75408;SDS011;63979;55.644;37.734;2023-07-29T05:06:14;5.75;;;3.03;;
75408;SDS011;63979;55.644;37.734;2023-07-29T05:11:15;6.95;;;3.42;;
75408;SDS011;63979;55.644;37.734;2023-07-29T05:21:18;2.88;;;2.47;;
75408;SDS011;63979;55.644;37.734;2023-07-29T05:26:18;4.03;;;2.95;;
75408;SDS011;63979;55.644;37.734;2023-07-29T05:31:19;2.88;;;2.35;;
75408;SDS011;63979;55.644;37.734;2023-07-29T05:36:20;4.40;;;4.00;;
75408;SDS011;63979;55.644;37.734;2023-07-29T05:41:21;2.90;;;2.60;;
75408;SDS011;63979;55.644;37.734;2023-07-29T05:46:22;3.63;;;2.50;;
75408;SDS011;63979;55.644;37.734;2023-07-29T05:51:23;5.90;;;3.17;;
75408;SDS011;63979;55.644;37.734;2023-07-29T05:56:24;3.72;;;2.55;;
75408;SDS011;63979;55.644;37.734;2023-07-29T06:01:25;3.30;;;2.40;;
75408;SDS011;63979;55.644;37.734;2023-07-29T06:06:26;5.10;;;2.67;;
75408;SDS011;63979;55.644;37.734;2023-07-29T06:11:28;3.08;;;2.75;;
75408;SDS011;63979;55.644;37.734;2023-07-29T06:16:29;4.32;;;2.72;;
75408;SDS011;63979;55.644;37.734;2023-07-29T06:21:31;5.03;;;2.50;;
75408;SDS011;63979;55.644;37.734;2023-07-29T06:26:32;3.22;;;2.78;;
75408;SDS011;63979;55.644;37.734;2023-07-29T06:31:33;2.60;;;2.40;;
75408;SDS011;63979;55.644;37.734;2023-07-29T06:36:34;7.25;;;3.45;;
75408;SDS011;63979;55.644;37.734;2023-07-29T06:41:35;6.00;;;3.10;;
75408;SDS011;63979;55.644;37.734;2023-07-29T06:46:37;4.38;;;2.47;;
75408;SDS011;63979;55.644;37.734;2023-07-29T06:51:38;5.13;;;2.40;;
75408;SDS011;63979;55.644;37.734;2023-07-29T06:56:38;3.08;;;2.28;;
75408;SDS011;63979;55.644;37.734;2023-07-29T07:01:40;5.63;;;2.83;;
75408;SDS011;63979;55.644;37.734;2023-07-29T07:06:41;5.28;;;2.60;;
75408;SDS011;63979;55.644;37.734;2023-07-29T07:11:42;5.07;;;2.65;;
75408;SDS011;63979;55.644;37.734;2023-07-29T07:16:43;5.20;;;2.55;;
75408;SDS011;63979;55.644;37.734;2023-07-29T07:21:44;3.55;;;2.95;;
75408;SDS011;63979;55.644;37.734;2023-07-29T07:26:45;3.58;;;2.47;;
75408;SDS011;63979;55.644;37.734;2023-07-29T07:31:52;4.25;;;2.78;;
75408;SDS011;63979;55.644;37.734;2023-07-29T07:36:54;2.63;;;2.35;;
75408;SDS011;63979;55.644;37.734;2023-07-29T07:41:55;4.43;;;2.53;;
75408;SDS011;63979;55.644;37.734;2023-07-29T07:46:56;4.35;;;3.20;;
75408;SDS011;63979;55.644;37.734;2023-07-29T07:51:58;3.47;;;3.13;;
75408;SDS011;63979;55.644;37.734;2023-07-29T07:56:59;6.30;;;3.55;;
75408;SDS011;63979;55.644;37.734;2023-07-29T08:02:00;4.15;;;2.85;;
75408;SDS011;63979;55.644;37.734;2023-07-29T08:07:01;4.50;;;2.92;;
75408;SDS011;63979;55.644;37.734;2023-07-29T08:12:02;5.00;;;3.28;;
75408;SDS011;63979;55.644;37.734;2023-07-29T08:17:03;4.63;;;3.55;;
75408;SDS011;63979;55.644;37.734;2023-07-29T08:22:05;5.93;;;3.40;;
75408;SDS011;63979;55.644;37.734;2023-07-29T08:27:06;3.53;;;2.80;;
75408;SDS011;63979;55.644;37.734;2023-07-29T08:32:07;4.15;;;2.97;;
75408;SDS011;63979;55.644;37.734;2023-07-29T08:37:08;7.30;;;3.63;;
75408;SDS011;63979;55.644;37.734;2023-07-29T08:42:10;5.75;;;3.75;;
75408;SDS011;63979;55.644;37.734;2023-07-29T08:47:12;3.63;;;3.22;;
75408;SDS011;63979;55.644;37.734;2023-07-29T08:52:14;4.30;;;3.35;;
75408;SDS011;63979;55.644;37.734;2023-07-29T08:57:16;5.45;;;3.75;;
75408;SDS011;63979;55.644;37.734;2023-07-29T09:02:17;5.55;;;3.85;;
75408;SDS011;63979;55.644;37.734;2023-07-29T09:07:18;6.38;;;3.78;;
75408;SDS011;63979;55.644;37.734;2023-07-29T09:12:20;5.80;;;3.88;;
75408;SDS011;63979;55.644;37.734;2023-07-29T09:17:21;6.18;;;3.90;;
75408;SDS011;63979;55.644;37.734;2023-07-29T09:22:22;7.53;;;4.10;;
75408;SDS011;63979;55.644;37.734;2023-07-29T09:27:27;6.43;;;4.72;;
75408;SDS011;63979;55.644;37.734;2023-07-29T09:32:32;4.40;;;3.45;;
75408;SDS011;63979;55.644;37.734;2023-07-29T09:37:33;5.43;;;3.78;;
75408;SDS011;63979;55.644;37.734;2023-07-29T09:42:34;5.53;;;3.65;;
75408;SDS011;63979;55.644;37.734;2023-07-29T09:47:35;4.35;;;3.35;;
75408;SDS011;63979;55.644;37.734;2023-07-29T09:52:36;3.40;;;2.83;;
75408;SDS011;63979;55.644;37.734;2023-07-29T09:57:37;9.52;;;3.80;;
75408;SDS011;63979;55.644;37.734;2023-07-29T10:02:40;5.50;;;3.75;;
75408;SDS011;63979;55.644;37.734;2023-07-29T10:07:42;5.20;;;3.67;;
75408;SDS011;63979;55.644;37.734;2023-07-29T10:17:45;4.70;;;3.25;;
75408;SDS011;63979;55.644;37.734;2023-07-29T10:22:47;4.38;;;3.17;;
75408;SDS011;63979;55.644;37.734;2023-07-29T10:33:21;6.50;;;3.83;;
75408;SDS011;63979;55.644;37.734;2023-07-29T10:38:23;4.75;;;4.25;;
75408;SDS011;63979;55.644;37.734;2023-07-29T10:43:26;6.20;;;3.88;;
75408;SDS011;63979;55.644;37.734;2023-07-29T10:53:38;7.55;;;3.78;;
75408;SDS011;63979;55.644;37.734;2023-07-29T11:03:43;4.38;;;3.55;;
75408;SDS011;63979;55.644;37.734;2023-07-29T11:09:08;5.95;;;3.80;;
75408;SDS011;63979;55.644;37.734;2023-07-29T11:14:42;8.55;;;5.03;;
75408;SDS011;63979;55.644;37.734;2023-07-29T11:19:43;9.30;;;5.97;;
75408;SDS011;63979;55.644;37.734;2023-07-29T11:24:45;6.72;;;3.97;;
75408;SDS011;63979;55.644;37.734;2023-07-29T11:29:46;6.80;;;4.53;;
75408;SDS011;63979;55.644;37.734;2023-07-29T11:34:48;9.13;;;5.70;;
75408;SDS011;63979;55.644;37.734;2023-07-29T11:39:49;7.38;;;4.68;;
75408;SDS011;63979;55.644;37.734;2023-07-29T11:44:51;8.35;;;4.93;;
75408;SDS011;63979;55.644;37.734;2023-07-29T11:49:52;9.65;;;3.90;;
75408;SDS011;63979;55.644;37.734;2023-07-29T11:54:53;13.82;;;9.35;;
75408;SDS011;63979;55.644;37.734;2023-07-29T11:59:55;5.65;;;4.75;;
75408;SDS011;63979;55.644;37.734;2023-07-29T12:09:58;7.82;;;5.32;;
75408;SDS011;63979;55.644;37.734;2023-07-29T12:14:59;8.18;;;4.47;;
75408;SDS011;63979;55.644;37.734;2023-07-29T12:20:01;6.70;;;4.38;;
75408;SDS011;63979;55.644;37.734;2023-07-29T12:25:04;8.63;;;4.13;;
75408;SDS011;63979;55.644;37.734;2023-07-29T12:30:08;7.97;;;4.38;;
75408;SDS011;63979;55.644;37.734;2023-07-29T12:35:10;5.50;;;3.63;;
75408;SDS011;63979;55.644;37.734;2023-07-29T12:40:21;7.80;;;4.55;;
75408;SDS011;63979;55.644;37.734;2023-07-29T12:45:23;9.48;;;4.93;;
75408;SDS011;63979;55.644;37.734;2023-07-29T12:50:27;6.10;;;4.03;;
75408;SDS011;63979;55.644;37.734;2023-07-29T12:55:28;10.30;;;4.80;;
75408;SDS011;63979;55.644;37.734;2023-07-29T13:00:29;6.15;;;4.97;;
75408;SDS011;63979;55.644;37.734;2023-07-29T13:10:31;8.60;;;4.35;;
75408;SDS011;63979;55.644;37.734;2023-07-29T13:15:31;6.47;;;4.50;;
75408;SDS011;63979;55.644;37.734;2023-07-29T13:20:32;7.32;;;5.15;;
75408;SDS011;63979;55.644;37.734;2023-07-29T13:25:35;5.95;;;5.28;;
75408;SDS011;63979;55.644;37.734;2023-07-29T13:30:36;11.90;;;5.00;;
75408;SDS011;63979;55.644;37.734;2023-07-29T13:35:37;6.85;;;4.82;;
75408;SDS011;63979;55.644;37.734;2023-07-29T13:40:38;8.98;;;4.63;;
75408;SDS011;63979;55.644;37.734;2023-07-29T13:45:39;6.97;;;5.32;;
75408;SDS011;63979;55.644;37.734;2023-07-29T13:50:40;9.20;;;5.63;;
75408;SDS011;63979;55.644;37.734;2023-07-29T13:55:43;7.40;;;4.93;;
75408;SDS011;63979;55.644;37.734;2023-07-29T14:00:44;6.75;;;4.05;;
75408;SDS011;63979;55.644;37.734;2023-07-29T14:05:45;5.45;;;4.78;;
75408;SDS011;63979;55.644;37.734;2023-07-29T14:10:47;6.97;;;4.22;;
75408;SDS011;63979;55.644;37.734;2023-07-29T14:15:49;9.13;;;4.95;;
75408;SDS011;63979;55.644;37.734;2023-07-29T14:20:50;8.27;;;3.83;;
75408;SDS011;63979;55.644;37.734;2023-07-29T14:25:52;5.05;;;3.20;;
75408;SDS011;63979;55.644;37.734;2023-07-29T14:30:53;4.18;;;3.15;;
75408;SDS011;63979;55.644;37.734;2023-07-29T14:35:54;4.07;;;3.30;;
75408;SDS011;63979;55.644;37.734;2023-07-29T14:40:55;5.35;;;3.22;;
75408;SDS011;63979;55.644;37.734;2023-07-29T14:45:56;9.85;;;3.80;;
75408;SDS011;63979;55.644;37.734;2023-07-29T14:50:57;3.15;;;2.67;;
75408;SDS011;63979;55.644;37.734;2023-07-29T14:55:58;5.10;;;3.13;;
75408;SDS011;63979;55.644;37.734;2023-07-29T15:01:00;3.63;;;2.78;;
75408;SDS011;63979;55.644;37.734;2023-07-29T15:06:01;4.70;;;3.28;;
75408;SDS011;63979;55.644;37.734;2023-07-29T15:11:03;4.15;;;2.90;;
75408;SDS011;63979;55.644;37.734;2023-07-29T15:16:04;8.10;;;4.80;;
75408;SDS011;63979;55.644;37.734;2023-07-29T15:21:06;4.07;;;2.65;;
75408;SDS011;63979;55.644;37.734;2023-07-29T15:26:07;4.18;;;2.67;;
75408;SDS011;63979;55.644;37.734;2023-07-29T15:31:08;6.40;;;3.25;;
75408;SDS011;63979;55.644;37.734;2023-07-29T15:36:09;4.88;;;3.70;;
75408;SDS011;63979;55.644;37.734;2023-07-29T15:41:09;4.50;;;2.80;;
75408;SDS011;63979;55.644;37.734;2023-07-29T15:46:10;4.60;;;2.88;;
75408;SDS011;63979;55.644;37.734;2023-07-29T15:51:11;4.93;;;2.95;;
75408;SDS011;63979;55.644;37.734;2023-07-29T15:56:12;7.57;;;3.22;;
75408;SDS011;63979;55.644;37.734;2023-07-29T16:01:14;3.85;;;2.80;;
75408;SDS011;63979;55.644;37.734;2023-07-29T16:06:15;4.40;;;3.17;;
75408;SDS011;63979;55.644;37.734;2023-07-29T16:11:16;7.93;;;2.65;;
75408;SDS011;63979;55.644;37.734;2023-07-29T16:16:17;4.85;;;2.65;;
75408;SDS011;63979;55.644;37.734;2023-07-29T16:21:18;5.43;;;3.75;;
75408;SDS011;63979;55.644;37.734;2023-07-29T16:26:19;4.32;;;3.28;;
75408;SDS011;63979;55.644;37.734;2023-07-29T16:31:21;6.28;;;4.25;;
75408;SDS011;63979;55.644;37.734;2023-07-29T16:36:22;4.55;;;3.38;;
75408;SDS011;63979;55.644;37.734;2023-07-29T16:41:23;6.57;;;3.03;;
75408;SDS011;63979;55.644;37.734;2023-07-29T16:46:24;5.18;;;3.53;;
75408;SDS011;63979;55.644;37.734;2023-07-29T16:51:25;10.18;;;5.93;;
75408;SDS011;63979;55.644;37.734;2023-07-29T16:56:27;4.50;;;2.97;;
75408;SDS011;63979;55.644;37.734;2023-07-29T17:01:28;6.80;;;3.28;;
75408;SDS011;63979;55.644;37.734;2023-07-29T17:06:29;7.30;;;3.28;;
75408;SDS011;63979;55.644;37.734;2023-07-29T17:11:30;6.70;;;3.70;;
75408;SDS011;63979;55.644;37.734;2023-07-29T17:16:31;8.60;;;3.45;;
75408;SDS011;63979;55.644;37.734;2023-07-29T17:21:32;4.25;;;3.08;;
75408;SDS011;63979;55.644;37.734;2023-07-29T17:26:33;5.13;;;3.03;;
75408;SDS011;63979;55.644;37.734;2023-07-29T17:31:34;3.88;;;3.22;;
75408;SDS011;63979;55.644;37.734;2023-07-29T17:36:36;5.43;;;3.63;;
75408;SDS011;63979;55.644;37.734;2023-07-29T17:41:38;7.43;;;4.38;;
75408;SDS011;63979;55.644;37.734;2023-07-29T17:46:39;6.05;;;3.15;;
75408;SDS011;63979;55.644;37.734;2023-07-29T17:51:41;7.78;;;3.65;;
75408;SDS011;63979;55.644;37.734;2023-07-29T17:56:42;7.72;;;5.05;;
75408;SDS011;63979;55.644;37.734;2023-07-29T18:01:43;3.40;;;3.08;;
75408;SDS011;63979;55.644;37.734;2023-07-29T18:06:48;6.93;;;5.20;;
75408;SDS011;63979;55.644;37.734;2023-07-29T18:11:49;5.38;;;3.95;;
75408;SDS011;63979;55.644;37.734;2023-07-29T18:16:50;10.93;;;6.53;;
75408;SDS011;63979;55.644;37.734;2023-07-29T18:21:51;6.65;;;4.60;;
75408;SDS011;63979;55.644;37.734;2023-07-29T18:26:52;8.23;;;4.80;;
75408;SDS011;63979;55.644;37.734;2023-07-29T18:31:53;7.70;;;4.35;;
75408;SDS011;63979;55.644;37.734;2023-07-29T18:36:56;12.10;;;6.05;;
75408;SDS011;63979;55.644;37.734;2023-07-29T18:41:57;9.57;;;7.18;;
75408;SDS011;63979;55.644;37.734;2023-07-29T18:46:58;10.40;;;5.78;;
75408;SDS011;63979;55.644;37.734;2023-07-29T18:51:59;12.18;;;7.20;;
75408;SDS011;63979;55.644;37.734;2023-07-29T18:57:00;8.77;;;5.65;;
75408;SDS011;63979;55.644;37.734;2023-07-29T19:02:01;8.63;;;5.25;;
75408;SDS011;63979;55.644;37.734;2023-07-29T19:07:03;8.40;;;4.88;;
75408;SDS011;63979;55.644;37.734;2023-07-29T19:12:04;12.32;;;6.43;;
75408;SDS011;63979;55.644;37.734;2023-07-29T19:17:05;10.32;;;5.80;;
75408;SDS011;63979;55.644;37.734;2023-07-29T19:22:06;8.82;;;5.93;;
75408;SDS011;63979;55.644;37.734;2023-07-29T19:27:07;7.38;;;5.15;;
75408;SDS011;63979;55.644;37.734;2023-07-29T19:32:08;10.05;;;5.88;;
75408;SDS011;63979;55.644;37.734;2023-07-29T19:37:09;7.68;;;5.75;;
75408;SDS011;63979;55.644;37.734;2023-07-29T19:42:12;8.30;;;5.72;;
75408;SDS011;63979;55.644;37.734;2023-07-29T19:47:13;16.17;;;10.93;;
75408;SDS011;63979;55.644;37.734;2023-07-29T19:52:14;17.60;;;8.85;;
75408;SDS011;63979;55.644;37.734;2023-07-29T19:57:15;11.38;;;7.53;;
75408;SDS011;63979;55.644;37.734;2023-07-29T20:02:16;18.95;;;11.35;;
75408;SDS011;63979;55.644;37.734;2023-07-29T20:07:17;21.90;;;15.20;;
75408;SDS011;63979;55.644;37.734;2023-07-29T20:12:19;21.33;;;15.40;;
75408;SDS011;63979;55.644;37.734;2023-07-29T20:17:20;21.90;;;13.20;;
75408;SDS011;63979;55.644;37.734;2023-07-29T20:22:21;24.92;;;15.77;;
75408;SDS011;63979;55.644;37.734;2023-07-29T20:27:22;24.45;;;14.63;;
75408;SDS011;63979;55.644;37.734;2023-07-29T20:32:23;26.50;;;14.07;;
75408;SDS011;63979;55.644;37.734;2023-07-29T20:37:24;22.70;;;13.18;;
75408;SDS011;63979;55.644;37.734;2023-07-29T20:42:25;20.17;;;12.90;;
75408;SDS011;63979;55.644;37.734;2023-07-29T20:47:26;18.45;;;12.32;;
75408;SDS011;63979;55.644;37.734;2023-07-29T20:52:27;15.68;;;10.80;;
75408;SDS011;63979;55.644;37.734;2023-07-29T20:57:28;15.25;;;10.25;;
75408;SDS011;63979;55.644;37.734;2023-07-29T21:02:29;14.50;;;11.00;;
75408;SDS011;63979;55.644;37.734;2023-07-29T21:07:30;11.35;;;7.90;;
75408;SDS011;63979;55.644;37.734;2023-07-29T21:12:31;14.55;;;9.57;;
75408;SDS011;63979;55.644;37.734;2023-07-29T21:17:32;15.15;;;9.35;;
75408;SDS011;63979;55.644;37.734;2023-07-29T21:22:33;17.55;;;9.75;;
75408;SDS011;63979;55.644;37.734;2023-07-29T21:27:35;15.50;;;9.88;;
75408;SDS011;63979;55.644;37.734;2023-07-29T21:32:36;12.82;;;8.55;;
75408;SDS011;63979;55.644;37.734;2023-07-29T21:37:37;12.88;;;10.10;;
75408;SDS011;63979;55.644;37.734;2023-07-29T21:42:38;17.27;;;9.80;;
75408;SDS011;63979;55.644;37.734;2023-07-29T21:47:41;14.20;;;9.18;;
75408;SDS011;63979;55.644;37.734;2023-07-29T21:52:42;14.13;;;7.50;;
75408;SDS011;63979;55.644;37.734;2023-07-29T21:57:43;13.50;;;8.25;;
75408;SDS011;63979;55.644;37.734;2023-07-29T22:02:44;16.95;;;8.93;;
75408;SDS011;63979;55.644;37.734;2023-07-29T22:07:45;13.52;;;8.27;;
75408;SDS011;63979;55.644;37.734;2023-07-29T22:12:46;14.50;;;9.10;;
75408;SDS011;63979;55.644;37.734;2023-07-29T22:17:47;17.85;;;10.48;;
75408;SDS011;63979;55.644;37.734;2023-07-29T22:22:48;12.73;;;8.30;;
75408;SDS011;63979;55.644;37.734;2023-07-29T22:27:49;16.63;;;10.02;;
75408;SDS011;63979;55.644;37.734;2023-07-29T22:32:50;13.15;;;9.38;;
75408;SDS011;63979;55.644;37.734;2023-07-29T22:37:51;16.00;;;9.43;;
75408;SDS011;63979;55.644;37.734;2023-07-29T22:42:52;14.00;;;8.65;;
75408;SDS011;63979;55.644;37.734;2023-07-29T22:47:53;17.58;;;8.48;;
75408;SDS011;63979;55.644;37.734;2023-07-29T22:52:54;17.88;;;12.00;;
75408;SDS011;63979;55.644;37.734;2023-07-29T22:57:55;12.07;;;8.85;;
75408;SDS011;63979;55.644;37.734;2023-07-29T23:02:56;14.27;;;9.20;;
75408;SDS011;63979;55.644;37.734;2023-07-29T23:07:56;15.43;;;9.73;;
75408;SDS011;63979;55.644;37.734;2023-07-29T23:12:58;15.40;;;10.02;;
75408;SDS011;63979;55.644;37.734;2023-07-29T23:18:00;12.32;;;8.73;;
75408;SDS011;63979;55.644;37.734;2023-07-29T23:23:01;15.63;;;9.88;;
75408;SDS011;63979;55.644;37.734;2023-07-29T23:28:03;15.27;;;8.77;;
75408;SDS011;63979;55.644;37.734;2023-07-29T23:33:04;14.02;;;7.07;;
75408;SDS011;63979;55.644;37.734;2023-07-29T23:43:07;12.73;;;9.55;;
75408;SDS011;63979;55.644;37.734;2023-07-29T23:48:08;13.02;;;8.77;;
75408;SDS011;63979;55.644;37.734;2023-07-29T23:53:09;16.95;;;10.23;;
75408;SDS011;63979;55.644;37.734;2023-07-29T23:58:10;14.13;;;10.10;;
